Time;durP1;ratioP1;P1;durP2;ratioP2;P2;SDS_P1;SDS_P2;PMS_P1;PMS_P2;Temp;Humidity;BMP_temperature;BMP_pressure;BME280_temperature;BME280_humidity;BME280_pressure;Samples;Min_cycle;Max_cycle;Signal;HPM_P1;HPM_P2
2021/07/31 00:00:36;;;;;;;;;18.00;17.00;;;;;26.43;50.27;98008.84;6078184;28;97761;-59
2021/07/31 00:03:40;;;;;;;;;20.40;20.00;;;;;26.40;50.43;98014.25;6088770;28;97575;-59
2021/07/31 00:07:03;;;;;;;;;16.50;16.50;;;;;26.35;50.95;98006.19;6091387;28;96820;-58
2021/07/31 00:10:08;;;;;;;;;20.40;19.00;;;;;26.33;50.71;98003.78;6081044;28;97274;-59
2021/07/31 00:13:12;;;;;;;;;19.00;18.00;;;;;26.33;50.64;98002.97;6068333;28;98619;-59
2021/07/31 00:16:15;;;;;;;;;19.00;17.80;;;;;26.33;50.64;97995.50;6085027;28;98057;-60
2021/07/31 00:19:19;;;;;;;;;19.00;16.60;;;;;26.30;50.60;98001.69;6085850;28;96711;-59
2021/07/31 00:22:22;;;;;;;;;18.60;18.00;;;;;26.29;50.93;98002.88;6084752;28;99796;-59
2021/07/31 00:25:27;;;;;;;;;21.00;19.00;;;;;26.24;50.85;98003.09;6090803;28;97066;-58
2021/07/31 00:28:30;;;;;;;;;19.50;18.50;;;;;26.21;50.97;98000.97;6075057;28;97613;-59
2021/07/31 00:31:34;;;;;;;;;19.00;19.00;;;;;26.21;50.86;97995.44;6081084;28;96707;-59
2021/07/31 00:34:38;;;;;;;;;17.50;17.25;;;;;26.09;50.80;97988.00;6089920;28;97228;-59
2021/07/31 00:37:41;;;;;;;;;17.00;16.00;;;;;26.04;51.44;97988.22;6090460;28;96447;-60
2021/07/31 00:40:46;;;;;;;;;20.25;17.25;;;;;26.01;51.31;97990.84;6089239;28;96666;-58
2021/07/31 00:43:50;;;;;;;;;21.00;18.60;;;;;25.92;51.58;97984.63;6067193;28;96613;-60
2021/07/31 00:46:53;;;;;;;;;18.00;16.00;;;;;25.92;51.73;97981.84;6073337;28;96747;-59
2021/07/31 00:49:58;;;;;;;;;18.80;18.00;;;;;25.91;51.82;97981.03;6088045;28;97473;-59
2021/07/31 00:53:01;;;;;;;;;18.00;17.00;;;;;25.90;51.94;97978.66;6083849;28;97276;-58
2021/07/31 00:56:07;;;;;;;;;16.40;15.00;;;;;25.86;51.75;97981.28;6079644;28;97698;-59
2021/07/31 00:59:11;;;;;;;;;18.00;17.00;;;;;25.78;52.06;97987.72;6088012;28;96499;-60
2021/07/31 01:02:15;;;;;;;;;20.00;17.00;;;;;25.77;52.07;97991.63;6080900;28;97529;-59
2021/07/31 01:05:19;;;;;;;;;20.20;17.60;;;;;25.76;52.01;97988.03;6088141;28;96711;-59
2021/07/31 01:08:22;;;;;;;;;16.50;16.50;;;;;25.80;51.95;97988.19;6063154;28;96529;-59
2021/07/31 01:11:37;;;;;;;;;17.80;17.00;;;;;25.79;51.83;97994.84;6075815;28;97547;-58
2021/07/31 01:14:41;;;;;;;;;20.50;17.00;;;;;25.72;52.04;97998.16;6088769;28;96995;-59
2021/07/31 01:17:44;;;;;;;;;18.40;17.40;;;;;25.66;52.29;97991.25;6094373;28;96592;-60
2021/07/31 01:20:48;;;;;;;;;19.00;18.80;;;;;25.67;52.11;97981.81;6094093;28;97115;-59
2021/07/31 01:23:54;;;;;;;;;18.20;17.20;;;;;25.69;52.25;97985.06;6082020;28;97558;-59
2021/07/31 01:26:58;;;;;;;;;19.40;18.00;;;;;25.63;52.39;97980.09;6094431;28;96702;-58
2021/07/31 01:30:03;;;;;;;;;19.00;17.00;;;;;25.60;52.41;97984.34;6093538;28;97118;-59
2021/07/31 01:33:07;;;;;;;;;18.20;17.80;;;;;25.60;52.29;97981.59;6091512;28;98068;-59
2021/07/31 01:36:11;;;;;;;;;19.75;18.00;;;;;25.43;52.38;97952.19;6062282;28;97328;-59
2021/07/31 01:39:20;;;;;;;;;18.00;16.60;;;;;25.59;52.41;97976.41;6076193;28;97025;-59
2021/07/31 01:42:23;;;;;;;;;20.00;17.00;;;;;25.57;52.47;97962.94;6094869;28;96511;-60
2021/07/31 01:45:28;;;;;;;;;19.00;16.75;;;;;25.53;52.70;97970.25;6084233;28;97022;-59
2021/07/31 01:48:34;;;;;;;;;18.20;15.60;;;;;25.55;52.50;97961.69;6088806;28;97165;-58
2021/07/31 01:51:39;;;;;;;;;20.00;18.20;;;;;25.52;52.74;97956.78;6089181;28;97545;-60
2021/07/31 01:54:44;;;;;;;;;21.00;19.00;;;;;25.51;52.62;97966.25;6085410;28;96527;-60
2021/07/31 01:57:48;;;;;;;;;19.00;18.00;;;;;25.55;52.62;97961.69;6083771;28;96699;-59
2021/07/31 02:00:53;;;;;;;;;18.00;17.00;;;;;25.51;52.52;97975.31;6088492;28;96943;-59
2021/07/31 02:04:00;;;;;;;;;18.80;17.00;;;;;25.53;52.53;97964.75;6091288;28;97866;-59
2021/07/31 02:07:04;;;;;;;;;18.00;17.00;;;;;25.55;52.33;97950.66;6093528;28;97482;-58
2021/07/31 02:10:11;;;;;;;;;17.60;16.60;;;;;25.51;52.83;97958.75;6092999;28;96583;-60
2021/07/31 02:13:15;;;;;;;;;21.40;19.00;;;;;25.52;52.37;97941.03;6060438;28;97281;-59
2021/07/31 02:16:23;;;;;;;;;21.40;17.40;;;;;25.49;52.61;97940.94;6073748;28;97778;-59
2021/07/31 02:19:30;;;;;;;;;18.00;17.67;;;;;25.46;52.57;97936.91;6087362;28;97342;-59
2021/07/31 02:22:40;;;;;;;;;20.25;19.00;;;;;25.42;52.62;97931.25;6081352;28;97533;-59
2021/07/31 02:26:03;;;;;;;;;17.50;16.00;;;;;25.25;52.63;97933.41;6082891;28;96480;-58
2021/07/31 02:29:06;;;;;;;;;17.40;16.00;;;;;25.06;52.70;97930.34;6092629;28;97666;-59
2021/07/31 02:32:15;;;;;;;;;18.00;17.00;;;;;25.06;52.72;97925.66;6082410;28;97101;-59
2021/07/31 02:35:18;;;;;;;;;17.00;16.00;;;;;25.09;52.70;97922.19;6092090;28;96649;-59
2021/07/31 02:38:53;;;;;;;;;18.00;17.00;;;;;25.13;52.84;97914.84;6092273;28;97458;-60
2021/07/31 02:41:59;;;;;;;;;17.00;16.00;;;;;25.13;52.99;97917.63;6084875;28;98177;-59
2021/07/31 02:45:06;;;;;;;;;17.75;17.00;;;;;25.15;53.00;97917.28;6075521;28;97343;-58
2021/07/31 02:48:10;;;;;;;;;18.40;17.40;;;;;25.15;53.07;97922.81;6082612;28;97128;-59
2021/07/31 02:51:15;;;;;;;;;18.00;15.00;;;;;25.12;53.00;97920.72;6052754;28;96603;-58
2021/07/31 02:54:44;;;;;;;;;19.20;18.20;;;;;25.13;53.00;97922.31;6086541;28;97987;-58
2021/07/31 02:57:49;;;;;;;;;19.50;18.50;;;;;25.08;53.39;97925.28;6083222;28;97194;-60
2021/07/31 03:00:55;;;;;;;;;19.00;17.00;;;;;25.10;53.20;97928.53;6097386;28;97628;-59
2021/07/31 03:03:59;;;;;;;;;18.60;17.40;;;;;25.08;53.19;97930.81;6079438;28;97486;-59
2021/07/31 03:07:03;;;;;;;;;20.00;18.00;;;;;25.14;53.19;97937.72;6106300;28;96669;-59
2021/07/31 03:10:11;;;;;;;;;19.00;17.00;;;;;25.17;53.00;97915.00;6106274;28;97200;-59
2021/07/31 03:13:17;;;;;;;;;22.20;20.40;;;;;25.25;53.03;97920.41;6080639;28;97582;-60
2021/07/31 03:16:21;;;;;;;;;19.00;18.60;;;;;25.28;53.08;97927.19;6109923;28;97318;-59
2021/07/31 03:19:30;;;;;;;;;21.00;19.00;;;;;25.27;53.04;97925.56;6084822;28;97176;-58
2021/07/31 03:22:34;;;;;;;;;17.60;17.20;;;;;25.25;52.57;97919.63;6086206;28;97136;-59
2021/07/31 03:25:41;;;;;;;;;18.80;17.00;;;;;25.03;52.47;97899.53;6086808;28;97598;-59
2021/07/31 03:28:47;;;;;;;;;15.00;13.00;;;;;25.17;52.35;97929.56;6081984;28;97620;-59
2021/07/31 03:31:54;;;;;;;;;16.40;15.60;;;;;25.13;52.02;97936.13;6073715;28;96708;-60
2021/07/31 03:34:58;;;;;;;;;19.00;16.25;;;;;25.06;52.07;97933.94;6105319;28;97407;-59
2021/07/31 03:38:03;;;;;;;;;14.60;13.60;;;;;24.99;52.38;97930.91;6089062;28;97642;-59
2021/07/31 03:41:07;;;;;;;;;15.00;13.80;;;;;24.97;52.58;97933.22;6073913;28;96647;-59
2021/07/31 03:44:21;;;;;;;;;16.00;15.50;;;;;24.95;52.92;97944.56;6083922;28;97486;-60
2021/07/31 03:47:26;;;;;;;;;16.40;15.00;;;;;25.00;52.87;97944.34;6074974;28;97421;-60
2021/07/31 03:50:30;;;;;;;;;18.75;15.75;;;;;25.10;52.80;97943.13;6091663;28;98148;-59
2021/07/31 03:53:38;;;;;;;;;15.75;14.00;;;;;25.23;52.69;97936.50;6077756;28;97457;-59
2021/07/31 03:56:43;;;;;;;;;16.40;14.60;;;;;25.35;52.69;97930.22;6094112;28;97453;-58
2021/07/31 03:59:58;;;;;;;;;18.50;17.00;;;;;25.44;52.58;97923.44;6072668;28;97443;-59
2021/07/31 04:03:02;;;;;;;;;17.00;17.00;;;;;25.55;52.33;97925.81;6087760;28;98537;-59
2021/07/31 04:06:05;;;;;;;;;18.00;16.80;;;;;25.66;52.37;97927.75;6089013;28;97034;-59
2021/07/31 04:09:34;;;;;;;;;15.50;13.50;;;;;25.78;52.58;97930.53;6077673;28;96694;-59
2021/07/31 04:13:01;;;;;;;;;20.20;18.00;;;;;25.92;52.38;97923.88;6077019;28;97301;-59
2021/07/31 04:16:19;;;;;;;;;19.00;18.00;;;;;26.04;52.18;97926.63;6089177;28;97570;-59
2021/07/31 04:19:22;;;;;;;;;17.00;16.20;;;;;26.15;52.14;97928.56;6064743;28;97525;-59
2021/07/31 04:22:27;;;;;;;;;19.67;16.00;;;;;26.22;51.84;97936.31;6084367;28;97014;-60
2021/07/31 04:25:30;;;;;;;;;16.20;15.20;;;;;26.22;51.54;97945.41;6090260;28;96576;-59
2021/07/31 04:28:33;;;;;;;;;16.00;15.50;;;;;26.16;51.55;97943.19;6087686;28;96580;-60
2021/07/31 04:31:38;;;;;;;;;16.60;16.40;;;;;26.08;51.58;97947.69;6086076;28;96687;-58
2021/07/31 04:34:42;;;;;;;;;18.40;17.00;;;;;26.09;51.41;97941.03;6089283;28;96596;-60
2021/07/31 04:37:45;;;;;;;;;17.00;15.00;;;;;26.07;51.38;97937.78;6071866;28;97621;-59
2021/07/31 04:40:50;;;;;;;;;16.40;16.20;;;;;26.14;51.33;97943.56;6077282;28;97527;-59
2021/07/31 04:43:53;;;;;;;;;18.40;15.00;;;;;26.21;51.14;97941.03;6080547;28;96672;-59
2021/07/31 04:46:58;;;;;;;;;18.00;17.00;;;;;26.30;51.00;97941.72;6087699;28;96669;-60
2021/07/31 04:50:01;;;;;;;;;18.00;17.00;;;;;26.42;51.09;97945.63;6063539;28;97324;-58
2021/07/31 04:53:05;;;;;;;;;16.75;15.00;;;;;26.57;50.99;97945.72;6088284;28;97311;-59
2021/07/31 04:56:08;;;;;;;;;19.00;18.00;;;;;26.78;50.33;97950.28;6089802;28;96613;-59
2021/07/31 04:59:12;;;;;;;;;19.00;19.00;;;;;27.02;50.13;97951.03;6088358;28;97509;-60
2021/07/31 05:02:17;;;;;;;;;16.00;15.00;;;;;27.23;49.39;97952.75;6069221;28;96703;-59
2021/07/31 05:05:20;;;;;;;;;17.80;14.80;;;;;27.42;48.23;97959.22;6088060;28;98564;-59
2021/07/31 05:08:24;;;;;;;;;18.40;16.00;;;;;27.67;47.70;97964.66;6089804;28;96633;-60
2021/07/31 05:11:28;;;;;;;;;19.00;17.00;;;;;27.84;47.60;97969.84;6087157;28;97326;-58
2021/07/31 05:14:31;;;;;;;;;18.00;17.25;;;;;27.97;46.77;97974.13;6090243;28;97565;-59
2021/07/31 05:17:36;;;;;;;;;16.00;15.00;;;;;27.97;46.40;97966.63;6077371;28;97559;-59
2021/07/31 05:20:42;;;;;;;;;16.50;15.00;;;;;28.12;45.83;97967.00;6088398;28;97482;-59
2021/07/31 05:23:45;;;;;;;;;15.25;14.25;;;;;28.17;46.32;97972.28;6088696;28;97564;-59
2021/07/31 05:26:49;;;;;;;;;18.00;16.00;;;;;28.17;45.89;97964.78;6089294;28;97106;-60
2021/07/31 05:29:52;;;;;;;;;15.60;15.40;;;;;28.21;45.49;97967.63;6069114;28;97244;-59
2021/07/31 05:32:57;;;;;;;;;17.00;16.00;;;;;28.16;45.13;97973.44;6088424;28;96713;-59
2021/07/31 05:36:08;;;;;;;;;17.00;16.00;;;;;28.09;45.00;97965.75;6086720;28;96654;-59
2021/07/31 05:39:13;;;;;;;;;16.00;15.40;;;;;28.14;44.70;97976.59;6087246;28;97035;-59
2021/07/31 05:42:16;;;;;;;;;14.33;13.00;;;;;28.13;45.01;97974.97;6088060;28;97603;-60
2021/07/31 05:45:20;;;;;;;;;15.20;13.20;;;;;28.19;44.79;97975.50;6070974;28;97978;-59
2021/07/31 05:48:29;;;;;;;;;15.25;14.25;;;;;28.20;44.29;97974.34;6088802;28;96787;-60
2021/07/31 05:51:32;;;;;;;;;16.60;13.60;;;;;28.19;45.08;97975.50;6079277;28;96710;-60
2021/07/31 05:54:37;;;;;;;;;19.00;15.75;;;;;28.14;46.11;97976.59;6088682;28;97438;-59
2021/07/31 05:57:40;;;;;;;;;15.50;15.50;;;;;28.10;46.29;97972.88;6088694;28;97414;-58
2021/07/31 06:00:43;;;;;;;;;15.60;14.40;;;;;28.11;45.75;97977.28;6084674;28;98457;-59
2021/07/31 06:03:48;;;;;;;;;15.00;14.00;;;;;28.11;44.73;97973.69;6093141;28;96603;-58
2021/07/31 06:06:54;;;;;;;;;17.00;15.25;;;;;28.10;45.50;97975.63;6091203;28;97524;-61
2021/07/31 06:09:58;;;;;;;;;16.20;13.80;;;;;28.15;45.35;97982.94;6092127;28;97425;-60
2021/07/31 06:13:04;;;;;;;;;17.00;16.00;;;;;28.18;45.85;97983.00;6090456;28;97070;-60
2021/07/31 06:16:09;;;;;;;;;19.25;17.50;;;;;28.17;46.03;98003.56;6092613;28;96711;-60
2021/07/31 06:19:14;;;;;;;;;18.00;17.00;;;;;28.21;46.52;97992.56;6085605;28;98113;-61
2021/07/31 06:22:17;;;;;;;;;19.00;18.00;;;;;28.13;46.39;98013.78;6086986;28;97045;-60
2021/07/31 06:25:21;;;;;;;;;15.00;15.00;;;;;28.11;46.19;98020.78;6091697;28;96624;-58
2021/07/31 06:28:24;;;;;;;;;18.20;16.20;;;;;27.99;46.63;98028.03;6088893;28;97604;-58
2021/07/31 06:31:30;;;;;;;;;18.00;17.20;;;;;27.98;47.78;98039.47;6091559;28;96650;-59
2021/07/31 06:34:34;;;;;;;;;17.00;16.00;;;;;27.93;46.84;98036.97;6091278;28;96693;-58
2021/07/31 06:37:38;;;;;;;;;16.20;15.00;;;;;27.74;47.14;98031.31;6091767;28;97847;-59
2021/07/31 06:40:43;;;;;;;;;17.00;16.00;;;;;27.73;46.87;98033.28;6091572;28;97259;-58
2021/07/31 06:43:46;;;;;;;;;16.40;15.80;;;;;27.76;46.68;98034.53;6090341;28;97387;-59
2021/07/31 06:46:49;;;;;;;;;16.40;16.40;;;;;27.68;46.90;98044.59;6091036;28;97652;-59
2021/07/31 06:49:54;;;;;;;;;18.00;16.00;;;;;27.56;46.68;98053.00;6088576;28;97521;-58
2021/07/31 06:52:57;;;;;;;;;17.00;16.25;;;;;27.41;47.75;98043.44;6072545;28;98623;-59
2021/07/31 07:18:07;;;;;;;;;13.00;13.00;;;;;27.15;50.72;98107.53;6083781;28;97428;-60
2021/07/31 07:21:11;;;;;;;;;16.00;13.00;;;;;27.08;51.30;98107.28;6091599;28;96572;-60
2021/07/31 07:24:14;;;;;;;;;15.60;14.00;;;;;27.01;51.77;98112.63;6091607;28;98313;-60
2021/07/31 07:27:18;;;;;;;;;14.80;14.00;;;;;26.99;52.05;98112.16;6081052;28;97479;-60
2021/07/31 07:30:21;;;;;;;;;12.40;12.00;;;;;26.96;52.38;98118.38;6090105;28;98610;-60
2021/07/31 07:33:26;;;;;;;;;15.60;14.00;;;;;26.78;52.37;98113.41;6092394;28;97458;-61
2021/07/31 07:36:29;;;;;;;;;13.33;12.33;;;;;26.64;52.93;98122.03;6088905;28;97154;-60
2021/07/31 07:39:32;;;;;;;;;14.00;12.00;;;;;26.54;52.99;98120.53;6091131;28;97491;-61
2021/07/31 07:42:39;;;;;;;;;13.00;13.00;;;;;26.60;53.32;98119.16;6088502;28;97574;-61
2021/07/31 07:45:42;;;;;;;;;10.00;9.00;;;;;26.63;53.39;98109.41;6083814;28;96742;-60
2021/07/31 07:48:47;;;;;;;;;9.00;9.00;;;;;26.48;53.55;98116.41;6090925;28;97210;-61
2021/07/31 07:51:51;;;;;;;;;9.00;9.00;;;;;26.56;53.98;98131.25;6084770;28;97462;-60
2021/07/31 07:54:54;;;;;;;;;10.25;9.25;;;;;26.65;53.69;98131.97;6087117;28;97425;-59
2021/07/31 07:57:57;;;;;;;;;11.00;9.00;;;;;26.73;54.03;98133.81;6087266;28;99401;-60
2021/07/31 08:01:00;;;;;;;;;12.50;11.00;;;;;26.86;53.73;98134.63;6089974;28;97666;-61
2021/07/31 08:04:06;;;;;;;;;13.40;11.00;;;;;26.79;53.88;98146.25;6087705;28;97192;-59
2021/07/31 08:07:09;;;;;;;;;12.00;11.00;;;;;26.88;53.78;98146.19;6089434;28;97526;-61
2021/07/31 08:10:13;;;;;;;;;12.40;11.00;;;;;26.92;53.78;98153.44;6089268;28;98053;-61
2021/07/31 08:13:17;;;;;;;;;11.00;11.00;;;;;27.04;53.76;98147.88;6082364;28;97075;-60
2021/07/31 08:16:20;;;;;;;;;14.00;13.00;;;;;27.12;53.12;98148.94;6090084;28;97610;-60
2021/07/31 08:19:25;;;;;;;;;15.00;13.00;;;;;27.17;52.97;98153.41;6089917;28;97534;-60
2021/07/31 08:22:28;;;;;;;;;13.00;12.40;;;;;27.16;52.37;98149.84;6097733;28;96627;-60
2021/07/31 08:25:31;;;;;;;;;12.00;11.40;;;;;27.21;52.75;98154.31;6089563;28;99137;-61
2021/07/31 08:28:35;;;;;;;;;12.60;12.20;;;;;27.11;52.49;98153.66;6088500;28;96756;-60
2021/07/31 08:31:40;;;;;;;;;11.00;10.00;;;;;27.15;52.30;98153.75;6089015;28;97257;-60
2021/07/31 08:34:46;;;;;;;;;11.40;11.00;;;;;27.23;51.69;98152.81;6086449;28;98600;-60
2021/07/31 08:37:50;;;;;;;;;12.00;10.60;;;;;27.22;51.66;98142.09;6089859;28;97605;-59
2021/07/31 08:40:53;;;;;;;;;11.40;9.60;;;;;27.19;51.69;98149.13;6090264;28;96619;-61
2021/07/31 08:43:57;;;;;;;;;12.00;12.00;;;;;27.01;51.56;98112.63;6088896;28;97213;-60
2021/07/31 08:47:03;;;;;;;;;11.00;11.00;;;;;27.27;52.09;98156.47;6072116;28;97544;-60
2021/07/31 08:50:11;;;;;;;;;11.50;11.50;;;;;27.41;51.60;98154.16;6087741;28;97176;-60
2021/07/31 08:53:14;;;;;;;;;11.60;11.00;;;;;27.48;52.12;98154.38;6087546;28;100158;-60
2021/07/31 08:56:17;;;;;;;;;13.40;12.00;;;;;27.59;52.17;98154.72;6079640;28;97335;-60
2021/07/31 08:59:25;;;;;;;;;13.00;12.00;;;;;27.68;51.19;98149.03;6090917;28;98287;-59
2021/07/31 09:02:40;;;;;;;;;12.00;11.00;;;;;27.63;51.36;98135.44;6090604;28;97416;-59
2021/07/31 09:05:45;;;;;;;;;13.00;11.00;;;;;27.77;51.25;98131.09;6080924;28;96633;-60
2021/07/31 09:08:53;;;;;;;;;10.40;10.40;;;;;27.85;50.73;98132.13;6090057;28;97438;-61
2021/07/31 09:12:01;;;;;;;;;12.40;12.40;;;;;27.93;50.48;98128.38;6086419;28;96653;-60
2021/07/31 09:15:06;;;;;;;;;12.00;11.00;;;;;27.98;50.83;98128.94;6088137;28;97621;-61
2021/07/31 09:18:21;;;;;;;;;11.00;10.00;;;;;28.05;50.73;98117.25;6083178;28;97435;-61
2021/07/31 09:21:30;;;;;;;;;12.40;11.00;;;;;28.16;49.79;98120.31;6089116;28;96702;-60
2021/07/31 09:24:34;;;;;;;;;10.80;10.00;;;;;28.19;50.56;98106.56;6079305;28;97385;-59
2021/07/31 09:27:38;;;;;;;;;11.00;10.00;;;;;28.30;50.35;98104.06;6090185;28;96440;-59
2021/07/31 09:30:50;;;;;;;;;13.25;12.25;;;;;28.40;50.36;98109.06;6085820;28;96763;-58
2021/07/31 09:33:54;;;;;;;;;13.00;12.40;;;;;28.50;50.14;98102.19;6089409;28;97416;-61
2021/07/31 09:37:14;;;;;;;;;12.20;12.00;;;;;28.57;50.51;98107.91;6094919;28;97607;-61
2021/07/31 09:40:29;;;;;;;;;12.00;12.00;;;;;28.65;50.56;98096.63;6092871;28;97383;-60
2021/07/31 09:43:32;;;;;;;;;15.00;11.60;;;;;28.65;49.82;98099.41;6092939;28;97686;-61
2021/07/31 09:46:42;;;;;;;;;12.00;11.40;;;;;28.65;49.83;98104.94;6093550;28;96626;-59
2021/07/31 09:49:47;;;;;;;;;13.00;11.00;;;;;28.59;49.93;98106.38;6093077;28;97626;-61
2021/07/31 09:53:07;;;;;;;;;15.00;12.00;;;;;28.64;50.36;98113.63;6091128;28;97583;-60
2021/07/31 09:56:10;;;;;;;;;12.00;11.00;;;;;28.72;50.37;98102.41;6092544;28;97552;-59
2021/07/31 09:59:15;;;;;;;;;12.00;12.00;;;;;28.78;49.29;98102.94;6093014;28;97431;-60
2021/07/31 10:02:20;;;;;;;;;16.00;14.00;;;;;28.87;49.67;98114.63;6092783;28;97220;-61
2021/07/31 10:05:23;;;;;;;;;11.50;11.00;;;;;28.89;49.71;98117.84;6092846;28;97487;-60
2021/07/31 10:08:28;;;;;;;;;13.00;11.40;;;;;28.87;49.92;98124.94;6095550;28;97240;-61
2021/07/31 10:11:33;;;;;;;;;13.00;12.00;;;;;28.82;51.66;98132.38;6090579;28;97168;-58
2021/07/31 10:14:37;;;;;;;;;13.00;12.00;;;;;28.76;51.49;98128.25;6096196;28;97073;-58
2021/07/31 10:17:41;;;;;;;;;13.40;12.40;;;;;28.73;51.36;98120.66;6089376;28;97406;-59
2021/07/31 10:20:45;;;;;;;;;10.60;9.40;;;;;28.63;51.16;98126.72;6089301;28;97745;-61
2021/07/31 10:24:08;;;;;;;;;12.40;12.00;;;;;28.48;50.20;98127.50;6091188;28;97446;-63
2021/07/31 10:27:23;;;;;;;;;13.40;11.00;;;;;28.54;51.14;98119.72;6091611;28;97210;-59
2021/07/31 10:30:33;;;;;;;;;12.50;11.50;;;;;28.48;50.55;98121.97;6088810;28;96784;-60
2021/07/31 10:33:45;;;;;;;;;14.00;13.00;;;;;28.64;50.93;98116.41;6106845;28;97575;-60
2021/07/31 10:36:51;;;;;;;;;11.00;10.00;;;;;28.79;49.87;98113.66;6091321;28;96633;-60
2021/07/31 10:39:56;;;;;;;;;12.00;12.00;;;;;28.89;49.29;98112.28;6092260;28;97504;-58
2021/07/31 10:43:04;;;;;;;;;11.20;10.40;;;;;28.91;49.30;98103.59;6091607;28;97518;-59
2021/07/31 10:46:24;;;;;;;;;10.50;10.00;;;;;29.16;48.41;98104.97;6087551;28;96636;-61
2021/07/31 10:49:35;;;;;;;;;11.00;11.00;;;;;29.41;47.92;98098.03;6070614;28;97609;-59
2021/07/31 10:52:51;;;;;;;;;13.60;12.00;;;;;29.62;47.46;98092.91;6086883;28;97574;-60
2021/07/31 10:56:04;;;;;;;;;11.20;10.00;;;;;29.63;47.44;98093.72;6088380;28;97269;-60
2021/07/31 10:59:19;;;;;;;;;12.00;12.00;;;;;29.76;47.12;98089.63;6090595;28;97444;-59
2021/07/31 11:02:37;;;;;;;;;12.00;11.00;;;;;29.82;47.09;98087.34;6084822;28;96664;-60
2021/07/31 11:06:03;;;;;;;;;11.00;9.20;;;;;29.97;48.10;98086.47;6080277;28;97509;-58
2021/07/31 11:09:15;;;;;;;;;11.00;11.00;;;;;30.15;45.97;98075.69;6083807;28;97391;-59
2021/07/31 11:12:47;;;;;;;;;12.00;11.00;;;;;30.29;45.85;98064.81;6080116;28;97483;-59
2021/07/31 11:16:19;;;;;;;;;10.20;10.00;;;;;30.52;45.35;98062.84;6079337;28;96781;-59
2021/07/31 11:19:33;;;;;;;;;9.00;9.00;;;;;30.58;44.41;98075.25;6075708;28;97604;-58
2021/07/31 11:22:36;;;;;;;;;10.60;10.00;;;;;30.61;45.22;98070.91;6085007;28;97475;-59
2021/07/31 11:25:43;;;;;;;;;9.50;9.50;;;;;30.64;42.93;98067.41;6080372;28;97436;-58
2021/07/31 11:28:48;;;;;;;;;9.25;9.00;;;;;30.73;43.38;98074.31;6090004;28;97440;-59
2021/07/31 11:32:00;;;;;;;;;7.00;7.00;;;;;30.75;42.07;98066.38;6088931;28;96512;-59
2021/07/31 11:35:07;;;;;;;;;8.80;8.80;;;;;30.79;43.87;98063.69;6097813;28;96610;-60
2021/07/31 11:38:37;;;;;;;;;9.00;8.00;;;;;30.75;41.91;98066.38;6095194;28;97652;-58
2021/07/31 11:41:42;;;;;;;;;8.00;8.00;;;;;30.71;42.00;98062.75;6087794;28;98340;-59
2021/07/31 11:44:47;;;;;;;;;8.00;7.00;;;;;30.67;42.93;98056.31;6084076;28;97452;-59
2021/07/31 11:47:57;;;;;;;;;6.00;5.80;;;;;30.74;41.20;98052.88;6086770;28;98108;-59
2021/07/31 11:51:01;;;;;;;;;8.00;7.00;;;;;30.79;41.59;98044.19;6092136;28;97231;-58
2021/07/31 11:54:07;;;;;;;;;6.00;6.00;;;;;30.86;41.05;98047.06;6087070;28;97382;-61
2021/07/31 11:57:14;;;;;;;;;8.00;7.00;;;;;30.89;40.68;98046.31;6091829;28;97249;-60
2021/07/31 12:00:19;;;;;;;;;6.00;6.00;;;;;31.10;40.68;98045.84;6097797;28;97277;-59
2021/07/31 12:03:42;;;;;;;;;5.40;5.40;;;;;31.30;40.41;98047.28;6093464;28;97104;-60
2021/07/31 12:06:46;;;;;;;;;6.20;6.20;;;;;31.54;40.35;98044.00;6080938;28;97122;-60
2021/07/31 12:09:59;;;;;;;;;9.00;7.00;;;;;31.78;39.86;98049.09;6081091;28;96584;-59
2021/07/31 12:13:09;;;;;;;;;8.00;8.00;;;;;32.06;39.19;98050.59;6098057;28;97528;-59
2021/07/31 12:16:14;;;;;;;;;7.00;6.40;;;;;32.22;37.40;98053.94;6099300;28;96807;-59
2021/07/31 12:19:17;;;;;;;;;6.40;5.00;;;;;32.43;37.87;98054.13;6076181;28;96694;-58
2021/07/31 12:22:23;;;;;;;;;7.00;7.00;;;;;32.47;36.71;98057.75;6090032;28;98594;-59
2021/07/31 12:25:28;;;;;;;;;5.00;5.00;;;;;32.54;36.70;98051.44;6097198;28;97419;-58
2021/07/31 12:28:39;;;;;;;;;6.40;6.40;;;;;32.73;36.31;98055.97;6106926;28;97504;-59
2021/07/31 12:31:44;;;;;;;;;5.00;5.00;;;;;32.95;36.91;98058.50;6089392;28;96503;-60
2021/07/31 12:34:48;;;;;;;;;5.75;5.00;;;;;33.15;35.56;98050.66;6106440;28;96760;-60
2021/07/31 12:37:52;;;;;;;;;7.00;7.00;;;;;33.20;35.54;98047.53;6103812;28;97442;-59
2021/07/31 12:40:57;;;;;;;;;8.00;7.80;;;;;33.22;36.75;98047.13;6093267;28;97396;-60
2021/07/31 12:44:02;;;;;;;;;7.00;6.80;;;;;33.25;35.83;98049.13;6105635;28;97452;-59
2021/07/31 12:47:09;;;;;;;;;6.60;6.20;;;;;33.38;36.60;98042.81;6098553;28;97604;-59
2021/07/31 12:50:13;;;;;;;;;6.00;6.00;;;;;33.71;35.80;98044.56;6098552;28;96892;-60
2021/07/31 12:53:19;;;;;;;;;6.00;6.00;;;;;33.93;31.78;98051.00;6090643;28;97471;-60
2021/07/31 12:56:23;;;;;;;;;4.60;4.60;;;;;33.99;31.91;98043.81;6084876;28;96880;-59
2021/07/31 12:59:26;;;;;;;;;6.00;5.00;;;;;34.22;32.92;98047.06;6105494;28;97614;-58
2021/07/31 13:02:48;;;;;;;;;4.50;4.50;;;;;34.41;32.32;98048.69;6094618;28;97582;-59
2021/07/31 13:05:51;;;;;;;;;4.00;4.00;;;;;34.68;31.95;98043.50;6102348;28;97754;-60
2021/07/31 13:08:55;;;;;;;;;6.75;6.75;;;;;34.82;32.43;98048.28;6089408;28;97406;-59
2021/07/31 13:11:58;;;;;;;;;6.20;6.20;;;;;34.77;32.69;98050.31;6093459;28;97459;-59
2021/07/31 13:15:03;;;;;;;;;5.00;5.00;;;;;34.70;30.53;98049.50;6086857;28;96589;-59
2021/07/31 13:18:11;;;;;;;;;5.00;5.00;;;;;34.76;31.12;98047.88;6108899;28;97686;-57
2021/07/31 13:21:14;;;;;;;;;5.80;5.00;;;;;34.74;32.30;98051.13;6094827;28;97485;-58
2021/07/31 13:24:18;;;;;;;;;5.00;5.00;;;;;34.75;30.69;98041.50;6095498;28;96571;-59
2021/07/31 13:27:21;;;;;;;;;5.00;5.00;;;;;34.57;29.31;98015.50;6110102;28;97596;-59
2021/07/31 13:30:25;;;;;;;;;3.60;3.60;;;;;34.47;29.75;98021.09;6109575;28;97028;-59
2021/07/31 13:33:30;;;;;;;;;3.60;3.60;;;;;34.55;30.44;98026.28;6093224;28;96712;-57
2021/07/31 13:36:33;;;;;;;;;6.00;5.80;;;;;34.64;29.82;98032.28;6109811;28;97972;-57
2021/07/31 13:39:43;;;;;;;;;5.00;5.00;;;;;34.64;30.69;98039.88;6105221;28;97388;-57
2021/07/31 13:42:47;;;;;;;;;4.40;4.00;;;;;34.53;30.85;98034.28;6084587;28;97432;-57
2021/07/31 13:45:51;;;;;;;;;5.20;5.00;;;;;34.71;30.54;98034.28;6106612;28;97071;-58
2021/07/31 13:48:56;;;;;;;;;5.25;5.25;;;;;34.82;30.56;98029.50;6085879;28;99020;-57
2021/07/31 13:52:02;;;;;;;;;5.80;5.00;;;;;34.98;30.71;98034.66;6102133;28;96888;-58
2021/07/31 13:55:06;;;;;;;;;6.00;5.25;;;;;35.10;30.51;98031.41;6100752;28;96608;-58
2021/07/31 13:58:10;;;;;;;;;5.80;5.00;;;;;35.02;29.31;98039.06;6101407;28;97368;-58
2021/07/31 14:01:14;;;;;;;;;6.50;6.00;;;;;35.04;30.07;98045.03;6103703;28;96627;-57
2021/07/31 14:04:20;;;;;;;;;6.00;6.00;;;;;35.30;30.32;98038.19;6087119;28;97489;-58
2021/07/31 14:07:23;;;;;;;;;7.60;7.00;;;;;35.41;30.60;98043.75;6109056;28;97412;-58
2021/07/31 14:10:33;;;;;;;;;6.00;6.00;;;;;35.57;30.38;98053.31;6108465;28;97562;-57
2021/07/31 14:13:36;;;;;;;;;6.00;5.00;;;;;35.61;30.40;98045.66;6118165;28;97439;-57
2021/07/31 14:16:43;;;;;;;;;6.40;6.40;;;;;35.50;29.88;98042.09;6101468;28;96861;-57
2021/07/31 14:19:48;;;;;;;;;6.00;6.00;;;;;35.37;30.78;98043.78;6105061;28;97536;-58
2021/07/31 14:22:51;;;;;;;;;5.00;4.00;;;;;34.95;31.37;98038.25;6080429;28;96527;-58
2021/07/31 14:25:54;;;;;;;;;5.20;5.00;;;;;34.66;32.42;98037.47;6105890;28;96753;-58
2021/07/31 14:28:58;;;;;;;;;7.00;7.00;;;;;34.31;31.57;98035.47;6099458;28;97537;-57
2021/07/31 14:32:02;;;;;;;;;6.00;6.00;;;;;34.08;32.34;98018.25;6082811;28;97121;-58
2021/07/31 14:35:13;;;;;;;;;6.00;6.00;;;;;33.86;32.48;98015.44;6108783;28;96814;-58
2021/07/31 14:38:18;;;;;;;;;6.00;5.40;;;;;33.73;32.94;98017.00;6108688;28;96674;-58
2021/07/31 14:41:21;;;;;;;;;5.50;5.50;;;;;33.78;33.44;98024.19;6082710;28;96570;-58
2021/07/31 14:44:24;;;;;;;;;7.25;6.00;;;;;33.92;34.41;98013.03;6108453;28;98151;-57